Time;durP1;ratioP1;P1;durP2;ratioP2;P2;SDS_P1;SDS_P2;PMS_P1;PMS_P2;Temp;Humidity;BMP_temperature;BMP_pressure;BME280_temperature;BME280_humidity;BME280_pressure;Samples;Min_cycle;Max_cycle;Signal;HPM_P1;HPM_P2
2022/10/26 00:02:31;;;;;;;;;;;;;;;;;;10385969;28;19948;-74
2022/10/26 00:07:31;;;;;;;;;;;;;;;;;;10382342;28;19922;-75
2022/10/26 00:12:31;;;;;;;;;;;;;;;;;;10390024;28;20003;-76
2022/10/26 00:17:31;;;;;;;;;;;;;;;;;;10401524;28;20466;-77
2022/10/26 00:22:32;;;;;;;;;;;;;;;;;;10378879;28;19988;-75
2022/10/26 00:27:33;;;;;;;;;;;;;;;;;;10384569;28;20017;-73
2022/10/26 00:32:34;;;;;;;;;;;;;;;;;;10375569;28;20319;-74
2022/10/26 00:37:34;;;;;;;;;;;;;;;;;;10387412;28;20388;-74
2022/10/26 00:42:34;;;;;;;;;;;;;;;;;;10377975;28;19922;-74
2022/10/26 00:47:34;;;;;;;;;;;;;;;;;;10383002;28;19929;-74
2022/10/26 00:52:35;;;;;;;;;;;;;;;;;;10385609;28;19933;-74
2022/10/26 00:57:35;;;;;;;;;;;;;;;;;;10384441;28;20509;-74
2022/10/26 01:02:36;;;;;;;;;;;;;;;;;;10387939;28;20385;-74
2022/10/26 01:07:36;;;;;;;;;;;;;;;;;;10377796;28;19944;-73
2022/10/26 01:12:36;;;;;;;;;;;;;;;;;;10389550;28;19929;-75
2022/10/26 01:17:36;;;;;;;;;;;;;;;;;;10388309;28;19921;-74
2022/10/26 01:22:36;;;;;;;;;;;;;;;;;;10387151;28;19922;-75
2022/10/26 01:27:37;;;;;;;;;;;;;;;;;;10387628;28;19925;-74
2022/10/26 01:32:37;;;;;;;;;;;;;;;;;;10376442;28;20075;-74
2022/10/26 01:37:37;;;;;;;;;;;;;;;;;;10389672;28;19968;-74
2022/10/26 01:42:37;;;;;;;;;;;;;;;;;;10384306;28;20392;-75
2022/10/26 01:47:38;;;;;;;;;;;;;;;;;;10390613;28;19921;-75
2022/10/26 01:52:38;;;;;;;;;;;;;;;;;;10378306;28;19956;-74
2022/10/26 01:57:38;;;;;;;;;;;;;;;;;;10376387;28;19932;-76
2022/10/26 02:02:38;;;;;;;;;;;;;;;;;;10388885;28;19928;-75
2022/10/26 02:07:39;;;;;;;;;;;;;;;;;;10387661;28;19932;-75
2022/10/26 02:12:39;;;;;;;;;;;;;;;;;;10395014;28;19932;-73
2022/10/26 02:17:39;;;;;;;;;;;;;;;;;;10384306;28;20087;-75
2022/10/26 02:22:39;;;;;;;;;;;;;;;;;;10400753;28;20428;-75
2022/10/26 02:27:40;;;;;;;;;;;;;;;;;;10377130;28;19921;-74
2022/10/26 02:32:40;;;;;;;;;;;;;;;;;;10386643;28;19940;-74
2022/10/26 02:37:40;;;;;;;;;;;;;;;;;;10386231;28;20042;-75
2022/10/26 02:42:40;;;;;;;;;;;;;;;;;;10388162;28;20434;-76
2022/10/26 02:47:41;;;;;;;;;;;;;;;;;;10376718;28;19968;-76
2022/10/26 02:52:41;;;;;;;;;;;;;;;;;;10395166;28;20339;-75
2022/10/26 02:57:41;;;;;;;;;;;;;;;;;;10371697;28;19925;-75
2022/10/26 03:02:41;;;;;;;;;;;;;;;;;;10387611;28;19960;-75
2022/10/26 03:07:42;;;;;;;;;;;;;;;;;;10386701;28;19925;-74
2022/10/26 03:12:42;;;;;;;;;;;;;;;;;;10380082;28;19929;-74
2022/10/26 03:17:42;;;;;;;;;;;;;;;;;;10388172;28;19948;-74
2022/10/26 03:22:43;;;;;;;;;;;;;;;;;;10373451;28;20309;-73
2022/10/26 03:27:43;;;;;;;;;;;;;;;;;;10383332;28;19921;-74
2022/10/26 03:32:43;;;;;;;;;;;;;;;;;;10368459;28;19929;-74
2022/10/26 03:37:43;;;;;;;;;;;;;;;;;;10381330;28;19929;-74
2022/10/26 03:42:43;;;;;;;;;;;;;;;;;;10371650;28;19917;-75
2022/10/26 03:47:44;;;;;;;;;;;;;;;;;;10382263;28;19918;-74
2022/10/26 03:52:44;;;;;;;;;;;;;;;;;;10377355;28;20003;-74
2022/10/26 03:57:44;;;;;;;;;;;;;;;;;;10378331;28;19921;-74
2022/10/26 04:02:46;;;;;;;;;;;;;;;;;;10384559;28;19951;-72
2022/10/26 04:07:47;;;;;;;;;;;;;;;;;;10387925;28;20392;-73
2022/10/26 04:12:47;;;;;;;;;;;;;;;;;;10387131;28;19929;-75
2022/10/26 04:17:47;;;;;;;;;;;;;;;;;;10392046;28;19921;-75
2022/10/26 04:22:48;;;;;;;;;;;;;;;;;;10377465;28;19940;-74
2022/10/26 04:27:48;;;;;;;;;;;;;;;;;;10389579;28;19928;-75
2022/10/26 04:32:48;;;;;;;;;;;;;;;;;;10383819;28;19925;-73
2022/10/26 04:37:48;;;;;;;;;;;;;;;;;;10402452;28;19921;-76
2022/10/26 04:42:48;;;;;;;;;;;;;;;;;;10391345;28;20000;-75
2022/10/26 04:47:49;;;;;;;;;;;;;;;;;;10407751;28;20457;-75
2022/10/26 04:52:49;;;;;;;;;;;;;;;;;;10407753;28;19933;-74
2022/10/26 04:57:49;;;;;;;;;;;;;;;;;;10416815;28;19967;-75
2022/10/26 05:02:50;;;;;;;;;;;;;;;;;;10404296;28;20337;-73
2022/10/26 05:07:50;;;;;;;;;;;;;;;;;;10380994;28;19921;-74
2022/10/26 05:12:50;;;;;;;;;;;;;;;;;;10399547;28;19929;-75
2022/10/26 05:17:51;;;;;;;;;;;;;;;;;;10387369;28;19928;-75
2022/10/26 05:22:51;;;;;;;;;;;;;;;;;;10383848;28;19933;-74
2022/10/26 05:27:51;;;;;;;;;;;;;;;;;;10375656;28;19921;-74
2022/10/26 05:32:51;;;;;;;;;;;;;;;;;;10384435;28;20393;-75
2022/10/26 05:37:51;;;;;;;;;;;;;;;;;;10387963;28;20443;-74
2022/10/26 05:42:52;;;;;;;;;;;;;;;;;;10398588;28;19960;-74
2022/10/26 05:47:52;;;;;;;;;;;;;;;;;;10403791;28;19921;-75
2022/10/26 05:52:54;;;;;;;;;;;;;;;;;;10407036;28;19925;-80
2022/10/26 05:57:54;;;;;;;;;;;;;;;;;;10390079;28;19927;-78
2022/10/26 06:02:54;;;;;;;;;;;;;;;;;;10395124;28;19917;-76
2022/10/26 06:07:55;;;;;;;;;;;;;;;;;;10379029;28;20387;-76
2022/10/26 06:12:55;;;;;;;;;;;;;;;;;;10381234;28;20052;-75
2022/10/26 06:17:55;;;;;;;;;;;;;;;;;;10385585;28;20416;-76
2022/10/26 06:22:58;;;;;;;;;;;;;;;;;;10378290;28;19921;-75
2022/10/26 06:27:59;;;;;;;;;;;;;;;;;;10386075;28;19921;-75
2022/10/26 06:33:00;;;;;;;;;;;;;;;;;;10371452;28;20381;-75
2022/10/26 06:38:00;;;;;;;;;;;;;;;;;;10386197;28;19971;-74
2022/10/26 06:43:00;;;;;;;;;;;;;;;;;;10380398;28;20308;-74
2022/10/26 06:48:03;;;;;;;;;;;;;;;;;;10379968;28;20142;-74
2022/10/26 06:53:03;;;;;;;;;;;;;;;;;;10384022;28;20308;-74
2022/10/26 06:58:03;;;;;;;;;;;;;;;;;;10383440;28;20008;-76
2022/10/26 07:03:03;;;;;;;;;;;;;;;;;;10386870;28;19918;-77
2022/10/26 07:08:05;;;;;;;;;;;;;;;;;;10377654;28;19988;-80
2022/10/26 07:13:08;;;;;;;;;;;;;;;;;;10390871;28;19929;-76
2022/10/26 07:18:08;;;;;;;;;;;;;;;;;;10383728;28;19917;-77
2022/10/26 07:23:12;;;;;;;;;;;;;;;;;;10387837;28;20440;-80
2022/10/26 07:28:12;;;;;;;;;;;;;;;;;;10424619;28;19925;-76
2022/10/26 07:33:13;;;;;;;;;;;;;;;;;;10441411;28;19932;-76
2022/10/26 07:38:13;;;;;;;;;;;;;;;;;;10434349;28;20292;-77
2022/10/26 07:43:19;;;;;;;;;;;;;;;;;;10437499;28;19921;-77
2022/10/26 07:48:19;;;;;;;;;;;;;;;;;;10433644;28;19935;-76
2022/10/26 07:53:19;;;;;;;;;;;;;;;;;;10437324;28;20012;-76
2022/10/26 07:58:22;;;;;;;;;;;;;;;;;;10439276;28;19925;-76
2022/10/26 08:03:24;;;;;;;;;;;;;;;;;;10440319;28;20145;-77
2022/10/26 08:08:25;;;;;;;;;;;;;;;;;;10433881;28;19994;-75
2022/10/26 08:13:25;;;;;;;;;;;;;;;;;;10436082;28;19929;-76
2022/10/26 08:18:25;;;;;;;;;;;;;;;;;;10439771;28;19921;-76
2022/10/26 08:23:26;;;;;;;;;;;;;;;;;;10431238;28;20037;-75
2022/10/26 08:28:26;;;;;;;;;;;;;;;;;;10431759;28;19925;-75
2022/10/26 08:33:26;;;;;;;;;;;;;;;;;;10423710;28;20033;-76
2022/10/26 08:38:26;;;;;;;;;;;;;;;;;;10430050;28;19990;-76
2022/10/26 08:43:28;;;;;;;;;;;;;;;;;;10429832;28;19928;-75
2022/10/26 08:48:28;;;;;;;;;;;;;;;;;;10414817;28;20012;-74
2022/10/26 08:53:28;;;;;;;;;;;;;;;;;;10434585;28;19929;-76
2022/10/26 08:58:29;;;;;;;;;;;;;;;;;;10429614;28;19920;-75
2022/10/26 09:03:29;;;;;;;;;;;;;;;;;;10437306;28;19917;-75
2022/10/26 09:08:29;;;;;;;;;;;;;;;;;;10429009;28;19921;-76
2022/10/26 09:13:29;;;;;;;;;;;;;;;;;;10436339;28;20422;-75
2022/10/26 09:18:30;;;;;;;;;;;;;;;;;;10433985;28;20306;-75
2022/10/26 09:23:30;;;;;;;;;;;;;;;;;;10423142;28;20289;-74
2022/10/26 09:28:30;;;;;;;;;;;;;;;;;;10435946;28;20687;-75
2022/10/26 09:33:30;;;;;;;;;;;;;;;;;;10435887;28;19929;-75
2022/10/26 09:38:31;;;;;;;;;;;;;;;;;;10442859;28;19921;-75
2022/10/26 09:43:31;;;;;;;;;;;;;;;;;;10437695;28;19920;-75
2022/10/26 09:48:31;;;;;;;;;;;;;;;;;;10435310;28;19932;-74
2022/10/26 09:53:31;;;;;;;;;;;;;;;;;;10436269;28;19932;-74
2022/10/26 09:58:32;;;;;;;;;;;;;;;;;;10424574;28;19940;-78
2022/10/26 10:03:32;;;;;;;;;;;;;;;;;;10430014;28;19928;-74
2022/10/26 10:08:32;;;;;;;;;;;;;;;;;;10433162;28;19983;-74
2022/10/26 10:13:32;;;;;;;;;;;;;;;;;;10436256;28;20269;-76
2022/10/26 10:18:33;;;;;;;;;;;;;;;;;;10425919;28;19928;-74
2022/10/26 10:23:33;;;;;;;;;;;;;;;;;;10431693;28;19921;-75
2022/10/26 10:28:33;;;;;;;;;;;;;;;;;;10432349;28;19978;-72
2022/10/26 10:33:34;;;;;;;;;;;;;;;;;;10418825;28;19925;-73
2022/10/26 10:38:34;;;;;;;;;;;;;;;;;;10431194;28;19928;-73
2022/10/26 10:43:34;;;;;;;;;;;;;;;;;;10419044;28;19921;-75
2022/10/26 10:48:34;;;;;;;;;;;;;;;;;;10436483;28;19927;-73
2022/10/26 10:53:35;;;;;;;;;;;;;;;;;;10424932;28;20027;-74
2022/10/26 10:58:35;;;;;;;;;;;;;;;;;;10425155;28;19998;-74
2022/10/26 11:03:35;;;;;;;;;;;;;;;;;;10422513;28;20408;-74
2022/10/26 11:08:35;;;;;;;;;;;;;;;;;;10431874;28;19917;-74
2022/10/26 11:13:36;;;;;;;;;;;;;;;;;;10420782;28;20031;-73
2022/10/26 11:18:36;;;;;;;;;;;;;;;;;;10439588;28;20004;-74
2022/10/26 11:23:36;;;;;;;;;;;;;;;;;;10419558;28;19921;-73
2022/10/26 11:28:36;;;;;;;;;;;;;;;;;;10434359;28;20544;-76
2022/10/26 11:33:37;;;;;;;;;;;;;;;;;;10414849;28;20661;-76
2022/10/26 11:38:37;;;;;;;;;;;;;;;;;;10428218;28;19924;-75
2022/10/26 11:43:38;;;;;;;;;;;;;;;;;;10427618;28;20330;-76
2022/10/26 11:48:38;;;;;;;;;;;;;;;;;;10420975;28;20003;-76
2022/10/26 11:53:38;;;;;;;;;;;;;;;;;;10426570;28;19929;-75
2022/10/26 11:58:40;;;;;;;;;;;;;;;;;;10429002;28;19923;-75
2022/10/26 12:03:41;;;;;;;;;;;;;;;;;;10434999;28;19925;-75
2022/10/26 12:08:41;;;;;;;;;;;;;;;;;;10417787;28;19929;-76
2022/10/26 12:13:42;;;;;;;;;;;;;;;;;;10426040;28;19940;-76
2022/10/26 12:18:42;;;;;;;;;;;;;;;;;;10425272;28;19921;-76
2022/10/26 12:23:42;;;;;;;;;;;;;;;;;;10421831;28;20303;-76
2022/10/26 12:28:42;;;;;;;;;;;;;;;;;;10424494;28;20381;-76
2022/10/26 12:33:43;;;;;;;;;;;;;;;;;;10429267;28;20737;-74
2022/10/26 12:38:43;;;;;;;;;;;;;;;;;;10432688;28;19921;-75
2022/10/26 12:43:43;;;;;;;;;;;;;;;;;;10429728;28;19921;-74
2022/10/26 12:48:43;;;;;;;;;;;;;;;;;;10428339;28;19920;-74
2022/10/26 12:53:44;;;;;;;;;;;;;;;;;;10431939;28;20059;-74
2022/10/26 12:58:44;;;;;;;;;;;;;;;;;;10439440;28;19921;-74
2022/10/26 13:03:44;;;;;;;;;;;;;;;;;;10434805;28;19921;-73
2022/10/26 13:08:44;;;;;;;;;;;;;;;;;;10431070;28;19921;-74
2022/10/26 13:13:45;;;;;;;;;;;;;;;;;;10438286;28;19936;-74
2022/10/26 13:18:47;;;;;;;;;;;;;;;;;;10433294;28;19927;-75
2022/10/26 13:23:47;;;;;;;;;;;;;;;;;;10428055;28;20016;-75
2022/10/26 13:28:47;;;;;;;;;;;;;;;;;;10427961;28;19924;-74
2022/10/26 13:33:47;;;;;;;;;;;;;;;;;;10435763;28;19932;-75
2022/10/26 13:38:48;;;;;;;;;;;;;;;;;;10438625;28;19943;-75
2022/10/26 13:43:48;;;;;;;;;;;;;;;;;;10437730;28;20377;-76
2022/10/26 13:48:48;;;;;;;;;;;;;;;;;;10439158;28;19924;-78
2022/10/26 13:53:49;;;;;;;;;;;;;;;;;;10434249;28;19962;-78
2022/10/26 13:58:49;;;;;;;;;;;;;;;;;;10433235;28;19932;-81
2022/10/26 14:03:49;;;;;;;;;;;;;;;;;;10443070;28;19971;-78
2022/10/26 14:08:49;;;;;;;;;;;;;;;;;;10428976;28;19917;-79
2022/10/26 14:13:50;;;;;;;;;;;;;;;;;;10443300;28;19967;-80
2022/10/26 14:18:50;;;;;;;;;;;;;;;;;;10460163;28;19921;-80
2022/10/26 14:23:51;;;;;;;;;;;;;;;;;;10436957;28;20149;-81
2022/10/26 14:28:51;;;;;;;;;;;;;;;;;;10427991;28;20440;-81
2022/10/26 14:33:51;;;;;;;;;;;;;;;;;;10429609;28;19932;-76
2022/10/26 14:38:52;;;;;;;;;;;;;;;;;;10426467;28;19960;-79
2022/10/26 14:43:52;;;;;;;;;;;;;;;;;;10422410;28;19921;-78
2022/10/26 14:48:52;;;;;;;;;;;;;;;;;;10417607;28;20011;-77
2022/10/26 14:53:52;;;;;;;;;;;;;;;;;;10424950;28;20070;-79
2022/10/26 14:58:52;;;;;;;;;;;;;;;;;;10420581;28;19936;-79
2022/10/26 15:03:53;;;;;;;;;;;;;;;;;;10429827;28;19917;-79
2022/10/26 15:08:54;;;;;;;;;;;;;;;;;;10434250;28;19918;-80
2022/10/26 15:13:57;;;;;;;;;;;;;;;;;;10432360;28;19929;-78
2022/10/26 15:18:57;;;;;;;;;;;;;;;;;;10421560;28;20415;-79
2022/10/26 15:23:57;;;;;;;;;;;;;;;;;;10420490;28;19927;-86
2022/10/26 15:28:58;;;;;;;;;;;;;;;;;;10412693;28;19943;-76
2022/10/26 15:33:58;;;;;;;;;;;;;;;;;;10412356;28;19924;-75
2022/10/26 15:38:59;;;;;;;;;;;;;;;;;;10414487;28;19967;-75
2022/10/26 15:44:04;;;;;;;;;;;;;;;;;;10444063;28;20316;-79
2022/10/26 15:49:05;;;;;;;;;;;;;;;;;;10436626;28;19924;-80
2022/10/26 15:54:05;;;;;;;;;;;;;;;;;;10436828;28;19932;-79
2022/10/26 15:59:05;;;;;;;;;;;;;;;;;;10413833;28;20301;-82
2022/10/26 16:04:07;;;;;;;;;;;;;;;;;;10443037;28;19921;-81
2022/10/26 16:09:07;;;;;;;;;;;;;;;;;;10427463;28;19951;-80
2022/10/26 16:14:08;;;;;;;;;;;;;;;;;;10442715;28;19991;-81
2022/10/26 16:19:10;;;;;;;;;;;;;;;;;;10430106;28;19918;-81
2022/10/26 16:24:10;;;;;;;;;;;;;;;;;;10433596;28;19955;-81
2022/10/26 16:29:10;;;;;;;;;;;;;;;;;;10443921;28;19925;-82
2022/10/26 16:34:10;;;;;;;;;;;;;;;;;;10449267;28;19933;-83
2022/10/26 16:39:11;;;;;;;;;;;;;;;;;;10461320;28;20355;-81
2022/10/26 16:44:13;;;;;;;;;;;;;;;;;;10445314;28;20338;-81
2022/10/26 16:49:13;;;;;;;;;;;;;;;;;;10455877;28;19928;-80
2022/10/26 16:54:14;;;;;;;;;;;;;;;;;;10449397;28;20351;-79
2022/10/26 16:59:14;;;;;;;;;;;;;;;;;;10444670;28;20347;-79
2022/10/26 17:04:14;;;;;;;;;;;;;;;;;;10441033;28;20365;-78
2022/10/26 17:09:16;;;;;;;;;;;;;;;;;;10440311;28;20347;-79
2022/10/26 17:14:16;;;;;;;;;;;;;;;;;;10444673;28;19975;-79
2022/10/26 17:19:16;;;;;;;;;;;;;;;;;;10468549;28;19920;-80
2022/10/26 17:24:17;;;;;;;;;;;;;;;;;;10454132;28;20036;-79
2022/10/26 17:29:18;;;;;;;;;;;;;;;;;;10458791;28;19939;-80
2022/10/26 17:34:18;;;;;;;;;;;;;;;;;;10442231;28;19929;-80
2022/10/26 17:39:19;;;;;;;;;;;;;;;;;;10450164;28;19929;-77
2022/10/26 17:44:20;;;;;;;;;;;;;;;;;;10440669;28;19932;-78
2022/10/26 17:49:21;;;;;;;;;;;;;;;;;;10436505;28;20335;-78
2022/10/26 17:54:21;;;;;;;;;;;;;;;;;;10434037;28;19929;-79
2022/10/26 17:59:22;;;;;;;;;;;;;;;;;;10436286;28;19921;-83
2022/10/26 18:04:22;;;;;;;;;;;;;;;;;;10430504;28;19944;-80
2022/10/26 18:09:22;;;;;;;;;;;;;;;;;;10426296;28;19927;-81
2022/10/26 18:14:22;;;;;;;;;;;;;;;;;;10415129;28;19929;-81
2022/10/26 18:19:23;;;;;;;;;;;;;;;;;;10425754;28;20267;-80
2022/10/26 18:24:23;;;;;;;;;;;;;;;;;;10425349;28;19924;-79
2022/10/26 18:29:24;;;;;;;;;;;;;;;;;;10419083;28;19931;-81
2022/10/26 18:34:24;;;;;;;;;;;;;;;;;;10430092;28;20414;-80
2022/10/26 18:39:24;;;;;;;;;;;;;;;;;;10433514;28;20428;-80
2022/10/26 18:44:24;;;;;;;;;;;;;;;;;;10410608;28;19921;-79
2022/10/26 18:49:25;;;;;;;;;;;;;;;;;;10433339;28;19921;-81
2022/10/26 18:54:25;;;;;;;;;;;;;;;;;;10447325;28;19929;-80
2022/10/26 18:59:26;;;;;;;;;;;;;;;;;;10430951;28;20007;-81
2022/10/26 19:04:26;;;;;;;;;;;;;;;;;;10438304;28;20377;-79
2022/10/26 19:09:26;;;;;;;;;;;;;;;;;;10431609;28;19952;-77
2022/10/26 19:14:27;;;;;;;;;;;;;;;;;;10457832;28;19997;-84
2022/10/26 19:19:28;;;;;;;;;;;;;;;;;;10458028;28;19927;-84
2022/10/26 19:24:28;;;;;;;;;;;;;;;;;;10451568;28;19921;-86
2022/10/26 19:29:30;;;;;;;;;;;;;;;;;;10465591;28;19925;-83
2022/10/26 19:34:30;;;;;;;;;;;;;;;;;;10468397;28;19954;-83
2022/10/26 19:39:30;;;;;;;;;;;;;;;;;;10475005;28;19917;-87
2022/10/26 19:44:30;;;;;;;;;;;;;;;;;;10483352;28;19916;-86
2022/10/26 19:49:32;;;;;;;;;;;;;;;;;;10452274;28;19917;-87
2022/10/26 19:54:33;;;;;;;;;;;;;;;;;;10468531;28;19948;-85
2022/10/26 19:59:33;;;;;;;;;;;;;;;;;;10419554;28;19921;-80
2022/10/26 20:04:34;;;;;;;;;;;;;;;;;;10462973;28;19924;-82
2022/10/26 20:09:35;;;;;;;;;;;;;;;;;;10436575;28;19925;-84
2022/10/26 20:14:36;;;;;;;;;;;;;;;;;;10433202;28;20392;-83
2022/10/26 20:19:36;;;;;;;;;;;;;;;;;;10434913;28;19989;-84
2022/10/26 20:24:36;;;;;;;;;;;;;;;;;;10451044;28;19906;-86
2022/10/26 20:29:38;;;;;;;;;;;;;;;;;;10492532;28;19918;-84
2022/10/26 20:34:41;;;;;;;;;;;;;;;;;;10688733;22;19923;-88
2022/10/26 20:39:42;;;;;;;;;;;;;;;;;;10537195;28;19956;-82
2022/10/26 20:44:42;;;;;;;;;;;;;;;;;;10500283;28;19924;-85
2022/10/26 20:49:42;;;;;;;;;;;;;;;;;;10497916;28;20684;-87
2022/10/26 20:54:44;;;;;;;;;;;;;;;;;;10490246;28;19968;-84
2022/10/26 20:59:45;;;;;;;;;;;;;;;;;;10480939;28;19928;-83
2022/10/26 21:04:45;;;;;;;;;;;;;;;;;;10504059;28;19931;-83
2022/10/26 21:09:45;;;;;;;;;;;;;;;;;;10485594;28;19921;-83
2022/10/26 21:14:46;;;;;;;;;;;;;;;;;;10490488;28;20001;-83
2022/10/26 21:19:46;;;;;;;;;;;;;;;;;;10491875;28;19924;-84
2022/10/26 21:24:46;;;;;;;;;;;;;;;;;;10488152;28;19952;-84
2022/10/26 21:29:46;;;;;;;;;;;;;;;;;;10486816;28;20339;-83
2022/10/26 21:34:47;;;;;;;;;;;;;;;;;;10479407;28;19986;-83
2022/10/26 21:39:47;;;;;;;;;;;;;;;;;;10487436;28;19978;-84
2022/10/26 21:44:47;;;;;;;;;;;;;;;;;;10484701;28;19920;-84
2022/10/26 21:49:47;;;;;;;;;;;;;;;;;;10504791;28;19921;-84
2022/10/26 21:54:47;;;;;;;;;;;;;;;;;;10529742;28;19998;-82
2022/10/26 21:59:48;;;;;;;;;;;;;;;;;;10527165;28;19921;-83
2022/10/26 22:04:49;;;;;;;;;;;;;;;;;;10492879;28;19917;-84
2022/10/26 22:09:49;;;;;;;;;;;;;;;;;;10499985;28;19963;-84
2022/10/26 22:14:49;;;;;;;;;;;;;;;;;;10502911;28;19928;-84
2022/10/26 22:19:49;;;;;;;;;;;;;;;;;;10488474;28;20007;-83
2022/10/26 22:24:49;;;;;;;;;;;;;;;;;;10497877;28;19921;-86
2022/10/26 22:29:50;;;;;;;;;;;;;;;;;;10510029;28;19920;-85
2022/10/26 22:34:50;;;;;;;;;;;;;;;;;;10497383;28;19928;-83
2022/10/26 22:39:51;;;;;;;;;;;;;;;;;;10474196;28;20689;-81
2022/10/26 22:44:51;;;;;;;;;;;;;;;;;;10481102;28;19925;-81
2022/10/26 22:49:51;;;;;;;;;;;;;;;;;;10468239;28;19928;-82
2022/10/26 22:54:54;;;;;;;;;;;;;;;;;;10480904;28;19925;-89
2022/10/26 22:59:57;;;;;;;;;;;;;;;;;;10462363;28;19924;-86
2022/10/26 23:04:58;;;;;;;;;;;;;;;;;;10476917;28;19921;-84
2022/10/26 23:09:59;;;;;;;;;;;;;;;;;;10482042;28;19912;-81
2022/10/26 23:14:59;;;;;;;;;;;;;;;;;;10472966;28;19928;-82
2022/10/26 23:20:00;;;;;;;;;;;;;;;;;;10474988;28;19917;-83
2022/10/26 23:25:00;;;;;;;;;;;;;;;;;;10473278;28;19950;-83
2022/10/26 23:30:00;;;;;;;;;;;;;;;;;;10481115;28;19920;-82
2022/10/26 23:35:00;;;;;;;;;;;;;;;;;;10476987;28;20023;-85
2022/10/26 23:40:01;;;;;;;;;;;;;;;;;;10486730;28;19912;-82
2022/10/26 23:45:01;;;;;;;;;;;;;;;;;;10484328;28;20526;-83
2022/10/26 23:50:01;;;;;;;;;;;;;;;;;;10521290;28;19927;-83
2022/10/26 23:55:02;;;;;;;;;;;;;;;;;;10478132;28;19951;-81
